createdAt,value
2023-04-01T00:01:17.490Z,99418.00
2023-04-01T00:03:44.481Z,99426.00
2023-04-01T00:06:15.502Z,99432.00
2023-04-01T00:08:42.166Z,99429.00
2023-04-01T00:11:08.774Z,99431.00
2023-04-01T00:13:35.535Z,99437.00
2023-04-01T00:16:03.624Z,99443.00
2023-04-01T00:18:31.373Z,99438.00
2023-04-01T00:20:58.002Z,99437.00
2023-04-01T00:23:24.629Z,99443.00
2023-04-01T00:25:51.630Z,99442.00
2023-04-01T00:28:21.046Z,99450.00
2023-04-01T00:30:48.246Z,99442.00
2023-04-01T00:33:14.937Z,99460.00
2023-04-01T00:35:41.670Z,99462.00
2023-04-01T00:38:08.660Z,99469.00
2023-04-01T00:40:38.560Z,99480.00
2023-04-01T00:43:15.202Z,99473.00
2023-04-01T00:45:43.896Z,99472.00
2023-04-01T00:48:34.191Z,99474.00
2023-04-01T00:51:07.031Z,99479.00
2023-04-01T00:53:36.920Z,99479.00
2023-04-01T00:56:28.832Z,99491.00
2023-04-01T00:59:17.388Z,99497.00
2023-04-01T01:01:44.113Z,99495.00
2023-04-01T01:04:32.876Z,99499.00
2023-04-01T01:07:21.574Z,99498.00
2023-04-01T01:10:00.801Z,99500.00
2023-04-01T01:12:38.842Z,99504.00
2023-04-01T01:15:32.077Z,99495.00
2023-04-01T01:18:16.082Z,99501.00
2023-04-01T01:21:05.932Z,99519.00
2023-04-01T01:23:54.251Z,99502.00
2023-04-01T01:26:36.584Z,99518.00
2023-04-01T01:29:29.578Z,99517.00
2023-04-01T01:32:20.516Z,99516.00
2023-04-01T01:35:19.497Z,99532.00
2023-04-01T01:37:48.051Z,99527.00
2023-04-01T01:40:17.277Z,99532.00
2023-04-01T01:42:57.245Z,99536.00
2023-04-01T01:45:26.274Z,99528.00
2023-04-01T01:47:53.618Z,99539.00
2023-04-01T01:50:21.686Z,99536.00
2023-04-01T01:52:48.470Z,99542.00
2023-04-01T01:55:34.071Z,99551.00
2023-04-01T01:58:09.036Z,99540.00
2023-04-01T02:00:36.678Z,99557.00
2023-04-01T02:03:04.522Z,99552.00
2023-04-01T02:05:32.872Z,99566.00
2023-04-01T02:08:17.369Z,99562.00
2023-04-01T02:10:54.510Z,99569.00
2023-04-01T02:13:32.105Z,99568.00
2023-04-01T02:16:03.051Z,99574.00
2023-04-01T02:18:31.116Z,99576.00
2023-04-01T02:21:00.736Z,99579.00
2023-04-01T02:23:29.227Z,99585.00
2023-04-01T02:25:56.092Z,99591.00
2023-04-01T02:28:25.982Z,99595.00
2023-04-01T02:30:53.334Z,99596.00
2023-04-01T02:33:21.925Z,99597.00
2023-04-01T02:35:48.641Z,99606.00
2023-04-01T02:38:16.787Z,99605.00
2023-04-01T02:40:52.632Z,99609.00
2023-04-01T02:43:20.811Z,99619.00
2023-04-01T02:45:47.526Z,99620.00
2023-04-01T02:48:15.152Z,99623.00
2023-04-01T02:50:41.843Z,99632.00
2023-04-01T02:53:08.606Z,99629.00
2023-04-01T02:55:35.888Z,99623.00
2023-04-01T02:58:02.912Z,99632.00
2023-04-01T03:00:29.774Z,99631.00
2023-04-01T03:02:57.463Z,99635.00
2023-04-01T03:05:24.842Z,99642.00
2023-04-01T03:07:51.506Z,99645.00
2023-04-01T03:10:18.496Z,99649.00
2023-04-01T03:12:45.130Z,99655.00
2023-04-01T03:15:14.550Z,99655.00
2023-04-01T03:17:43.101Z,99670.00
2023-04-01T03:20:11.799Z,99661.00
2023-04-01T03:22:40.249Z,99671.00
2023-04-01T03:25:09.858Z,99673.00
2023-04-01T03:27:36.837Z,99685.00
2023-04-01T03:30:07.200Z,99686.00
2023-04-01T03:32:34.292Z,99689.00
2023-04-01T03:35:01.029Z,99693.00
2023-04-01T03:37:27.680Z,99698.00
2023-04-01T03:39:54.276Z,99706.00
2023-04-01T03:42:20.898Z,99702.00
2023-04-01T03:44:47.542Z,99704.00
2023-04-01T03:47:14.200Z,99710.00
2023-04-01T03:49:40.932Z,99718.00
2023-04-01T03:52:11.818Z,99712.00
2023-04-01T03:54:38.809Z,99724.00
2023-04-01T03:57:05.799Z,99712.00
2023-04-01T03:59:32.652Z,99728.00
2023-04-01T04:01:59.296Z,99728.00
2023-04-01T04:04:27.108Z,99729.00
2023-04-01T04:06:53.884Z,99724.00
2023-04-01T04:09:20.697Z,99730.00
2023-04-01T04:11:47.391Z,99731.00
2023-04-01T04:14:13.962Z,99735.00
2023-04-01T04:16:40.621Z,99741.00
2023-04-01T04:19:07.206Z,99752.00
2023-04-01T04:21:33.941Z,99753.00
2023-04-01T04:24:02.030Z,99766.00
2023-04-01T04:26:28.682Z,99756.00
2023-04-01T04:28:55.856Z,99761.00
2023-04-01T04:31:24.127Z,99763.00
2023-04-01T04:33:51.171Z,99768.00
2023-04-01T04:36:18.593Z,99773.00
2023-04-01T04:38:45.628Z,99757.00
2023-04-01T04:41:14.202Z,99765.00
2023-04-01T04:43:41.776Z,99771.00
2023-04-01T04:46:09.980Z,99765.00
2023-04-01T04:48:37.367Z,99773.00
2023-04-01T04:51:04.398Z,99778.00
2023-04-01T04:53:31.242Z,99780.00
2023-04-01T04:55:57.831Z,99793.00
2023-04-01T04:58:24.508Z,99787.00
2023-04-01T05:00:51.507Z,99791.00
2023-04-01T05:03:18.303Z,99796.00
2023-04-01T05:05:53.305Z,99806.00
2023-04-01T05:08:20.035Z,99810.00
2023-04-01T05:10:46.726Z,99817.00
2023-04-01T05:13:13.463Z,99823.00
2023-04-01T05:15:40.465Z,99820.00
2023-04-01T05:18:07.248Z,99823.00
2023-04-01T05:20:33.980Z,99825.00
2023-04-01T05:23:01.096Z,99824.00
2023-04-01T05:25:27.885Z,99836.00
2023-04-01T05:27:54.627Z,99834.00
2023-04-01T05:30:22.014Z,99845.00
2023-04-01T05:32:48.761Z,99836.00
2023-04-01T05:35:15.421Z,99840.00
2023-04-01T05:37:42.000Z,99836.00
2023-04-01T05:40:09.433Z,99839.00
2023-04-01T05:42:38.129Z,99849.00
2023-04-01T05:45:06.202Z,99845.00
2023-04-01T05:47:32.914Z,99852.00
2023-04-01T05:49:59.672Z,99860.00
2023-04-01T05:52:26.404Z,99860.00
2023-04-01T05:54:53.062Z,99866.00
2023-04-01T05:57:19.682Z,99868.00
2023-04-01T05:59:46.913Z,99868.00
2023-04-01T06:02:19.697Z,99879.00
2023-04-01T06:04:47.003Z,99874.00
2023-04-01T06:07:18.919Z,99874.00
2023-04-01T06:09:46.374Z,99884.00
2023-04-01T06:12:38.998Z,99882.00
2023-04-01T06:15:05.832Z,99890.00
2023-04-01T06:18:10.305Z,99893.00
2023-04-01T06:20:46.051Z,99904.00
2023-04-01T06:23:46.668Z,99900.00
2023-04-01T06:26:29.451Z,99905.00
2023-04-01T06:29:17.695Z,99904.00
2023-04-01T06:31:50.580Z,99904.00
2023-04-01T06:34:28.140Z,99908.00
2023-04-01T06:37:24.504Z,99913.00
2023-04-01T06:40:26.729Z,99915.00
2023-04-01T06:43:07.104Z,99916.00
2023-04-01T06:45:48.204Z,99926.00
2023-04-01T06:48:33.748Z,99933.00
2023-04-01T06:51:22.396Z,99926.00
2023-04-01T06:54:11.862Z,99935.00
2023-04-01T06:56:41.919Z,99940.00
2023-04-01T06:59:16.173Z,99939.00
2023-04-01T07:02:06.972Z,99939.00
2023-04-01T07:04:38.064Z,99949.00
2023-04-01T07:07:56.977Z,99953.00
2023-04-01T07:10:40.425Z,99960.00
2023-04-01T07:13:13.724Z,99953.00
2023-04-01T07:15:57.921Z,99958.00
2023-04-01T07:18:38.764Z,99966.00
2023-04-01T07:21:06.836Z,99967.00
2023-04-01T07:23:40.399Z,99976.00
2023-04-01T07:26:21.872Z,99981.00
2023-04-01T07:28:49.651Z,99980.00
2023-04-01T07:31:34.448Z,99984.00
2023-04-01T07:34:51.538Z,99983.00
2023-04-01T07:37:32.617Z,99992.00
2023-04-01T07:40:01.947Z,99994.00
2023-04-01T07:43:01.421Z,99997.00
2023-04-01T07:45:55.156Z,100002.00
2023-04-01T07:48:47.315Z,99998.00
2023-04-01T07:51:43.501Z,100010.00
2023-04-01T07:54:52.022Z,100012.00
2023-04-01T07:57:29.838Z,100018.00
2023-04-01T08:00:28.534Z,100022.00
2023-04-01T08:03:13.943Z,100025.00
2023-04-01T08:06:02.026Z,100030.00
2023-04-01T08:08:47.542Z,100037.00
2023-04-01T08:11:29.719Z,100043.00
2023-04-01T08:14:23.552Z,100042.00
2023-04-01T08:17:14.814Z,100048.00
2023-04-01T08:19:57.473Z,100059.00
2023-04-01T08:22:42.833Z,100056.00
2023-04-01T08:25:17.239Z,100062.00
2023-04-01T08:27:54.870Z,100065.00
2023-04-01T08:30:25.449Z,100060.00
2023-04-01T08:33:01.073Z,100069.00
2023-04-01T08:35:39.993Z,100073.00
2023-04-01T08:38:19.349Z,100079.00
2023-04-01T08:40:51.577Z,100082.00
2023-04-01T08:43:33.473Z,100087.00
2023-04-01T08:46:24.875Z,100091.00
2023-04-01T08:49:09.429Z,100086.00
2023-04-01T08:51:48.269Z,100096.00
2023-04-01T08:54:32.490Z,100099.00
2023-04-01T08:57:20.997Z,100098.00
2023-04-01T09:00:02.133Z,100098.00
2023-04-01T09:02:53.610Z,100102.00
2023-04-01T09:05:38.673Z,100104.00
2023-04-01T09:08:32.613Z,100106.00
2023-04-01T09:11:27.071Z,100112.00
2023-04-01T09:14:21.061Z,100115.00
2023-04-01T09:17:16.942Z,100120.00
2023-04-01T09:20:08.239Z,100114.00
2023-04-01T09:22:43.206Z,100108.00
2023-04-01T09:25:17.551Z,100114.00
2023-04-01T09:28:23.924Z,100122.00
2023-04-01T09:31:44.198Z,100119.00
2023-04-01T09:34:23.737Z,100120.00
2023-04-01T09:37:02.274Z,100123.00
2023-04-01T09:39:57.353Z,100138.00
2023-04-01T09:42:44.127Z,100138.00
2023-04-01T09:45:38.560Z,100142.00
2023-04-01T09:48:42.252Z,100139.00
2023-04-01T09:51:20.960Z,100145.00
2023-04-01T09:53:53.542Z,100147.00
2023-04-01T09:56:33.110Z,100152.00
2023-04-01T09:59:19.817Z,100147.00
2023-04-01T10:02:07.469Z,100148.00
2023-04-01T10:05:11.089Z,100159.00
2023-04-01T10:08:04.726Z,100158.00
2023-04-01T10:10:43.309Z,100168.00
2023-04-01T10:13:31.677Z,100167.00
2023-04-01T10:16:08.296Z,100166.00
2023-04-01T10:19:02.111Z,100167.00
2023-04-01T10:21:46.722Z,100178.00
2023-04-01T10:24:41.871Z,100172.00
2023-04-01T10:27:40.545Z,100179.00
2023-04-01T10:30:22.057Z,100173.00
2023-04-01T10:33:30.690Z,100184.00
2023-04-01T10:36:16.267Z,100182.00
2023-04-01T10:38:45.858Z,100182.00
2023-04-01T10:41:37.318Z,100188.00
2023-04-01T10:44:28.197Z,100185.00
2023-04-01T10:47:04.763Z,100200.00
2023-04-01T10:49:37.199Z,100205.00
2023-04-01T10:52:36.011Z,100203.00
2023-04-01T10:55:11.960Z,100203.00
2023-04-01T10:58:12.111Z,100210.00
2023-04-01T11:00:57.235Z,100213.00
2023-04-01T11:03:42.592Z,100204.00
2023-04-01T11:06:15.404Z,100215.00
2023-04-01T11:09:06.315Z,100214.00
2023-04-01T11:11:56.580Z,100216.00
2023-04-01T11:14:46.324Z,100212.00
2023-04-01T11:17:23.572Z,100223.00
2023-04-01T11:20:37.923Z,100221.00
2023-04-01T11:23:19.515Z,100224.00
2023-04-01T11:26:04.878Z,100228.00
2023-04-01T11:28:52.398Z,100226.00
2023-04-01T11:31:55.985Z,100241.00
2023-04-01T11:34:25.493Z,100242.00
2023-04-01T11:37:10.920Z,100249.00
2023-04-01T11:39:58.265Z,100249.00
2023-04-01T11:42:49.707Z,100255.00
2023-04-01T11:45:35.258Z,100256.00
2023-04-01T11:48:33.547Z,100252.00
2023-04-01T11:51:06.111Z,100264.00
2023-04-01T11:53:58.526Z,100269.00
2023-04-01T11:56:37.139Z,100275.00
2023-04-01T11:59:06.891Z,100273.00
2023-04-01T12:02:24.674Z,100279.00
2023-04-01T12:05:33.850Z,100288.00
2023-04-01T12:08:19.308Z,100294.00
2023-04-01T12:10:58.252Z,100291.00
2023-04-01T12:13:54.148Z,100304.00
2023-04-01T12:16:40.617Z,100305.00
2023-04-01T12:19:27.468Z,100308.00
2023-04-01T12:22:15.092Z,100307.00
2023-04-01T12:24:52.594Z,100313.00
2023-04-01T12:27:49.713Z,100314.00
2023-04-01T12:30:31.320Z,100319.00
2023-04-01T12:33:06.501Z,100324.00
2023-04-01T12:36:19.251Z,100321.00
2023-04-01T12:38:57.630Z,100330.00
2023-04-01T12:41:45.968Z,100330.00
2023-04-01T12:44:27.663Z,100324.00
2023-04-01T12:47:01.476Z,100334.00
2023-04-01T12:49:49.975Z,100342.00
2023-04-01T12:52:37.585Z,100335.00
2023-04-01T12:55:33.192Z,100339.00
2023-04-01T12:58:22.456Z,100341.00
2023-04-01T13:01:04.537Z,100347.00
2023-04-01T13:03:43.185Z,100352.00
2023-04-01T13:06:32.904Z,100358.00
2023-04-01T13:09:18.243Z,100357.00
2023-04-01T13:12:15.658Z,100358.00
2023-04-01T13:15:06.102Z,100363.00
2023-04-01T13:17:51.080Z,100358.00
2023-04-01T13:20:31.334Z,100362.00
2023-04-01T13:23:19.483Z,100367.00
2023-04-01T13:26:14.226Z,100371.00
2023-04-01T13:29:27.213Z,100374.00
2023-04-01T13:32:12.419Z,100377.00
2023-04-01T13:35:12.840Z,100384.00
2023-04-01T13:37:58.040Z,100385.00
2023-04-01T13:40:55.693Z,100387.00
2023-04-01T13:43:34.639Z,100386.00
2023-04-01T13:46:04.142Z,100392.00
2023-04-01T13:49:01.928Z,100391.00
2023-04-01T13:51:53.303Z,100395.00
2023-04-01T13:54:28.757Z,100399.00
2023-04-01T13:57:22.737Z,100399.00
2023-04-01T14:00:21.605Z,100398.00
2023-04-01T14:02:56.272Z,100394.00
2023-04-01T14:05:44.098Z,100404.00
2023-04-01T14:08:35.088Z,100404.00
2023-04-01T14:11:14.019Z,100404.00
2023-04-01T14:14:18.528Z,100421.00
2023-04-01T14:17:23.885Z,100413.00
2023-04-01T14:20:21.080Z,100411.00
2023-04-01T14:23:15.856Z,100417.00
2023-04-01T14:25:48.210Z,100425.00
2023-04-01T14:28:19.589Z,100428.00
2023-04-01T14:30:56.575Z,100427.00
2023-04-01T14:33:26.205Z,100437.00
2023-04-01T14:36:13.062Z,100426.00
2023-04-01T14:39:20.689Z,100439.00
2023-04-01T14:42:11.835Z,100437.00
2023-04-01T14:44:45.977Z,100440.00
2023-04-01T14:47:26.003Z,100437.00
2023-04-01T14:49:57.295Z,100445.00
2023-04-01T14:52:32.595Z,100447.00
2023-04-01T14:54:59.995Z,100449.00
2023-04-01T14:57:32.934Z,100455.00
2023-04-01T15:00:05.635Z,100449.00
2023-04-01T15:02:48.453Z,100468.00
2023-04-01T15:05:46.734Z,100457.00
2023-04-01T15:08:33.837Z,100470.00
2023-04-01T15:11:01.213Z,100478.00
2023-04-01T15:13:50.076Z,100480.00
2023-04-01T15:16:23.337Z,100475.00
2023-04-01T15:18:52.823Z,100477.00
2023-04-01T15:21:39.920Z,100476.00
2023-04-01T15:24:31.747Z,100479.00
2023-04-01T15:27:14.375Z,100484.00
2023-04-01T15:30:16.862Z,100488.00
2023-04-01T15:32:46.431Z,100499.00
2023-04-01T15:35:40.048Z,100485.00
2023-04-01T15:38:21.272Z,100490.00
2023-04-01T15:40:47.848Z,100502.00
2023-04-01T15:43:23.240Z,100505.00
2023-04-01T15:46:10.567Z,100501.00
2023-04-01T15:48:45.283Z,100513.00
2023-04-01T15:51:38.896Z,100516.00
2023-04-01T15:54:39.302Z,100510.00
2023-04-01T15:57:29.625Z,100516.00
2023-04-01T16:00:05.146Z,100521.00
2023-04-01T16:02:37.990Z,100533.00
2023-04-01T16:05:31.359Z,100533.00
2023-04-01T16:08:24.724Z,100538.00
2023-04-01T16:11:21.591Z,100538.00
2023-04-01T16:14:24.943Z,100540.00
2023-04-01T16:17:28.446Z,100549.00
2023-04-01T16:20:10.578Z,100545.00
2023-04-01T16:22:46.266Z,100549.00
2023-04-01T16:25:35.990Z,100553.00
2023-04-01T16:28:21.725Z,100555.00
2023-04-01T16:30:51.715Z,100570.00
2023-04-01T16:33:29.073Z,100573.00
2023-04-01T16:36:11.697Z,100577.00
2023-04-01T16:39:17.209Z,100574.00
2023-04-01T16:41:49.850Z,100583.00
2023-04-01T16:44:23.562Z,100577.00
2023-04-01T16:47:08.814Z,100592.00
2023-04-01T16:49:42.256Z,100593.00
2023-04-01T16:52:11.883Z,100606.00
2023-04-01T16:54:59.225Z,100600.00
2023-04-01T16:57:52.055Z,100609.00
2023-04-01T17:00:27.427Z,100610.00
2023-04-01T17:03:18.667Z,100617.00
2023-04-01T17:05:51.340Z,100613.00
2023-04-01T17:08:49.250Z,100624.00
2023-04-01T17:11:43.192Z,100628.00
2023-04-01T17:14:30.620Z,100633.00
2023-04-01T17:17:06.398Z,100640.00
2023-04-01T17:19:39.062Z,100641.00
2023-04-01T17:22:22.776Z,100653.00
2023-04-01T17:25:04.876Z,100652.00
2023-04-01T17:28:12.902Z,100656.00
2023-04-01T17:31:11.130Z,100658.00
2023-04-01T17:33:47.542Z,100673.00
2023-04-01T17:36:31.471Z,100671.00
2023-04-01T17:39:17.531Z,100676.00
2023-04-01T17:41:54.536Z,100679.00
2023-04-01T17:44:39.380Z,100690.00
2023-04-01T17:47:12.592Z,100694.00
2023-04-01T17:50:08.334Z,100704.00
2023-04-01T17:52:47.162Z,100702.00
2023-04-01T17:55:31.965Z,100709.00
2023-04-01T17:58:21.867Z,100720.00
2023-04-01T18:00:57.760Z,100724.00
2023-04-01T18:03:42.992Z,100725.00
2023-04-01T18:06:21.108Z,100735.00
2023-04-01T18:09:01.463Z,100728.00
2023-04-01T18:11:53.594Z,100733.00
2023-04-01T18:14:56.028Z,100740.00
2023-04-01T18:17:27.233Z,100748.00
2023-04-01T18:20:12.414Z,100755.00
2023-04-01T18:22:44.996Z,100751.00
2023-04-01T18:25:20.782Z,100766.00
2023-04-01T18:27:53.107Z,100766.00
2023-04-01T18:30:33.730Z,100770.00
2023-04-01T18:33:00.458Z,100770.00
2023-04-01T18:35:48.359Z,100780.00
2023-04-01T18:38:32.331Z,100782.00
2023-04-01T18:41:37.388Z,100792.00
2023-04-01T18:44:28.010Z,100805.00
2023-04-01T18:46:54.558Z,100808.00
2023-04-01T18:49:42.777Z,100811.00
2023-04-01T18:52:21.358Z,100815.00
2023-04-01T18:54:53.937Z,100827.00
2023-04-01T18:57:21.543Z,100833.00
2023-04-01T18:59:54.058Z,100835.00
2023-04-01T19:02:35.434Z,100844.00
2023-04-01T19:05:19.975Z,100847.00
2023-04-01T19:07:53.818Z,100848.00
2023-04-01T19:10:43.995Z,100855.00
2023-04-01T19:13:16.267Z,100853.00
2023-04-01T19:15:47.281Z,100862.00
2023-04-01T19:18:38.308Z,100858.00
2023-04-01T19:21:07.866Z,100870.00
2023-04-01T19:23:52.982Z,100874.00
2023-04-01T19:26:50.739Z,100883.00
2023-04-01T19:29:54.968Z,100886.00
2023-04-01T19:32:43.463Z,100896.00
2023-04-01T19:35:19.028Z,100901.00
2023-04-01T19:37:55.546Z,100897.00
2023-04-01T19:40:45.653Z,100910.00
2023-04-01T19:43:48.575Z,100920.00
2023-04-01T19:46:39.389Z,100919.00
2023-04-01T19:49:52.285Z,100925.00
2023-04-01T19:52:27.593Z,100926.00
2023-04-01T19:55:16.869Z,100930.00
2023-04-01T19:57:52.333Z,100940.00
2023-04-01T20:00:37.529Z,100946.00
2023-04-01T20:03:27.653Z,100954.00
2023-04-01T20:06:25.302Z,100960.00
2023-04-01T20:09:12.504Z,100960.00
2023-04-01T20:12:02.260Z,100960.00
2023-04-01T20:14:44.472Z,100973.00
2023-04-01T20:17:26.150Z,100974.00
2023-04-01T20:20:00.985Z,100980.00
2023-04-01T20:23:11.874Z,100983.00
2023-04-01T20:25:52.785Z,100987.00
2023-04-01T20:28:19.286Z,100989.00
2023-04-01T20:31:10.766Z,100993.00
2023-04-01T20:34:01.826Z,101001.00
2023-04-01T20:36:37.944Z,100991.00
2023-04-01T20:39:29.514Z,101006.00
2023-04-01T20:42:29.157Z,101010.00
2023-04-01T20:45:39.034Z,101023.00
2023-04-01T20:48:29.755Z,101028.00
2023-04-01T20:51:06.299Z,101029.00
2023-04-01T20:54:27.125Z,101028.00
2023-04-01T20:57:24.596Z,101034.00
2023-04-01T21:00:23.511Z,101043.00
2023-04-01T21:03:11.828Z,101052.00
2023-04-01T21:06:05.636Z,101058.00
2023-04-01T21:08:38.324Z,101055.00
2023-04-01T21:11:26.579Z,101067.00
2023-04-01T21:14:08.343Z,101071.00
2023-04-01T21:16:41.512Z,101065.00
2023-04-01T21:19:41.946Z,101068.00
2023-04-01T21:22:33.274Z,101075.00
2023-04-01T21:24:59.703Z,101083.00
2023-04-01T21:27:38.476Z,101091.00
2023-04-01T21:30:36.976Z,101083.00
2023-04-01T21:33:25.180Z,101096.00
2023-04-01T21:36:02.506Z,101095.00
2023-04-01T21:38:44.300Z,101102.00
2023-04-01T21:41:29.482Z,101107.00
2023-04-01T21:44:27.300Z,101115.00
2023-04-01T21:47:15.410Z,101118.00
2023-04-01T21:50:15.872Z,101123.00
2023-04-01T21:53:00.643Z,101124.00
2023-04-01T21:56:04.619Z,101123.00
2023-04-01T21:58:31.178Z,101129.00
2023-04-01T22:01:03.387Z,101138.00
2023-04-01T22:04:10.868Z,101144.00
2023-04-01T22:06:52.534Z,101149.00
2023-04-01T22:09:47.054Z,101148.00
2023-04-01T22:12:38.448Z,101152.00
2023-04-01T22:15:18.408Z,101163.00
2023-04-01T22:17:52.830Z,101166.00
2023-04-01T22:20:38.233Z,101162.00
2023-04-01T22:23:36.325Z,101157.00
2023-04-01T22:26:27.973Z,101167.00
2023-04-01T22:29:19.525Z,101170.00
2023-04-01T22:31:53.226Z,101168.00
2023-04-01T22:34:25.540Z,101179.00
2023-04-01T22:37:12.971Z,101177.00
2023-04-01T22:40:02.021Z,101187.00
2023-04-01T22:42:47.182Z,101184.00
2023-04-01T22:45:13.850Z,101188.00
2023-04-01T22:48:17.420Z,101190.00
2023-04-01T22:50:58.011Z,101200.00
2023-04-01T22:54:00.085Z,101195.00
2023-04-01T22:56:37.109Z,101204.00
2023-04-01T22:59:09.411Z,101205.00
2023-04-01T23:01:46.993Z,101214.00
2023-04-01T23:04:20.904Z,101218.00
2023-04-01T23:06:56.534Z,101225.00
2023-04-01T23:09:32.627Z,101226.00
2023-04-01T23:12:04.145Z,101233.00
2023-04-01T23:14:48.818Z,101232.00
2023-04-01T23:17:36.472Z,101233.00
2023-04-01T23:20:28.585Z,101248.00
2023-04-01T23:23:02.403Z,101246.00
2023-04-01T23:25:47.798Z,101248.00
2023-04-01T23:28:23.502Z,101257.00
2023-04-01T23:30:51.272Z,101262.00
2023-04-01T23:33:21.054Z,101260.00
2023-04-01T23:36:13.372Z,101262.00
2023-04-01T23:38:43.098Z,101270.00
2023-04-01T23:41:21.546Z,101275.00
2023-04-01T23:44:13.101Z,101270.00
2023-04-01T23:46:42.219Z,101282.00
2023-04-01T23:49:19.731Z,101275.00
2023-04-01T23:52:26.214Z,101278.00
2023-04-01T23:55:04.335Z,101294.00
2023-04-01T23:57:34.016Z,101289.00
